sensor_id;sensor_type;location;lat;lon;timestamp;P1;durP1;ratioP1;P2;durP2;ratioP2
69126;SDS011;56688;50.234;19.292;2023-06-22T00:01:19;12.60;;;5.60;;
69126;SDS011;56688;50.234;19.292;2023-06-22T00:03:46;9.60;;;5.30;;
69126;SDS011;56688;50.234;19.292;2023-06-22T00:06:13;12.20;;;5.60;;
69126;SDS011;56688;50.234;19.292;2023-06-22T00:08:40;11.30;;;5.40;;
69126;SDS011;56688;50.234;19.292;2023-06-22T00:11:07;8.30;;;5.30;;
69126;SDS011;56688;50.234;19.292;2023-06-22T00:13:34;9.60;;;5.50;;
69126;SDS011;56688;50.234;19.292;2023-06-22T00:16:01;8.00;;;5.30;;
69126;SDS011;56688;50.234;19.292;2023-06-22T00:18:28;12.90;;;5.60;;
69126;SDS011;56688;50.234;19.292;2023-06-22T00:20:57;8.10;;;4.80;;
69126;SDS011;56688;50.234;19.292;2023-06-22T00:23:25;11.00;;;5.80;;
69126;SDS011;56688;50.234;19.292;2023-06-22T00:25:52;9.70;;;4.80;;
69126;SDS011;56688;50.234;19.292;2023-06-22T00:28:19;8.40;;;5.60;;
69126;SDS011;56688;50.234;19.292;2023-06-22T00:30:47;10.10;;;4.90;;
69126;SDS011;56688;50.234;19.292;2023-06-22T00:33:17;8.40;;;4.80;;
69126;SDS011;56688;50.234;19.292;2023-06-22T00:35:44;12.00;;;4.90;;
69126;SDS011;56688;50.234;19.292;2023-06-22T00:38:11;10.90;;;4.80;;
69126;SDS011;56688;50.234;19.292;2023-06-22T00:40:41;10.70;;;5.20;;
69126;SDS011;56688;50.234;19.292;2023-06-22T00:43:07;8.00;;;4.80;;
69126;SDS011;56688;50.234;19.292;2023-06-22T00:45:34;12.60;;;4.60;;
69126;SDS011;56688;50.234;19.292;2023-06-22T00:48:01;12.60;;;4.90;;
69126;SDS011;56688;50.234;19.292;2023-06-22T00:50:30;12.30;;;5.20;;
69126;SDS011;56688;50.234;19.292;2023-06-22T00:53:03;6.10;;;3.60;;
69126;SDS011;56688;50.234;19.292;2023-06-22T00:55:38;10.20;;;4.40;;
69126;SDS011;56688;50.234;19.292;2023-06-22T00:58:10;10.10;;;4.80;;
69126;SDS011;56688;50.234;19.292;2023-06-22T01:00:38;9.80;;;4.30;;
69126;SDS011;56688;50.234;19.292;2023-06-22T01:03:07;8.60;;;4.40;;
69126;SDS011;56688;50.234;19.292;2023-06-22T01:05:36;8.40;;;4.40;;
69126;SDS011;56688;50.234;19.292;2023-06-22T01:11:00;11.80;;;4.60;;
69126;SDS011;56688;50.234;19.292;2023-06-22T01:13:35;9.80;;;4.70;;
69126;SDS011;56688;50.234;19.292;2023-06-22T01:18:41;9.20;;;4.80;;
69126;SDS011;56688;50.234;19.292;2023-06-22T01:21:13;12.00;;;4.90;;
69126;SDS011;56688;50.234;19.292;2023-06-22T01:23:51;11.40;;;4.40;;
69126;SDS011;56688;50.234;19.292;2023-06-22T01:26:22;8.20;;;4.50;;
69126;SDS011;56688;50.234;19.292;2023-06-22T01:29:01;10.40;;;4.20;;
69126;SDS011;56688;50.234;19.292;2023-06-22T01:31:31;10.80;;;4.10;;
69126;SDS011;56688;50.234;19.292;2023-06-22T01:34:03;9.80;;;4.50;;
69126;SDS011;56688;50.234;19.292;2023-06-22T01:36:32;9.70;;;4.60;;
69126;SDS011;56688;50.234;19.292;2023-06-22T01:39:00;8.60;;;4.30;;
69126;SDS011;56688;50.234;19.292;2023-06-22T01:41:28;9.80;;;4.30;;
69126;SDS011;56688;50.234;19.292;2023-06-22T01:43:57;8.80;;;4.10;;
69126;SDS011;56688;50.234;19.292;2023-06-22T01:46:25;12.10;;;4.40;;
69126;SDS011;56688;50.234;19.292;2023-06-22T01:48:52;10.10;;;4.50;;
69126;SDS011;56688;50.234;19.292;2023-06-22T01:51:21;10.30;;;4.20;;
69126;SDS011;56688;50.234;19.292;2023-06-22T01:53:48;12.60;;;4.10;;
69126;SDS011;56688;50.234;19.292;2023-06-22T01:56:18;12.80;;;4.70;;
69126;SDS011;56688;50.234;19.292;2023-06-22T01:58:48;10.20;;;4.40;;
69126;SDS011;56688;50.234;19.292;2023-06-22T02:01:24;13.40;;;4.50;;
69126;SDS011;56688;50.234;19.292;2023-06-22T02:04:02;7.70;;;4.20;;
69126;SDS011;56688;50.234;19.292;2023-06-22T02:06:36;11.40;;;5.00;;
69126;SDS011;56688;50.234;19.292;2023-06-22T02:09:07;13.30;;;6.80;;
69126;SDS011;56688;50.234;19.292;2023-06-22T02:11:39;12.50;;;6.80;;
69126;SDS011;56688;50.234;19.292;2023-06-22T02:14:09;12.10;;;6.40;;
69126;SDS011;56688;50.234;19.292;2023-06-22T02:16:38;15.40;;;6.30;;
69126;SDS011;56688;50.234;19.292;2023-06-22T02:19:05;17.30;;;7.10;;
69126;SDS011;56688;50.234;19.292;2023-06-22T02:21:33;13.70;;;6.60;;
69126;SDS011;56688;50.234;19.292;2023-06-22T02:24:01;14.40;;;6.50;;
69126;SDS011;56688;50.234;19.292;2023-06-22T02:26:29;9.40;;;5.80;;
69126;SDS011;56688;50.234;19.292;2023-06-22T02:28:57;13.00;;;5.20;;
69126;SDS011;56688;50.234;19.292;2023-06-22T02:31:23;20.70;;;5.30;;
69126;SDS011;56688;50.234;19.292;2023-06-22T02:33:58;8.00;;;4.70;;
69126;SDS011;56688;50.234;19.292;2023-06-22T02:36:25;14.90;;;5.30;;
69126;SDS011;56688;50.234;19.292;2023-06-22T02:38:54;9.00;;;5.00;;
69126;SDS011;56688;50.234;19.292;2023-06-22T02:41:23;15.70;;;6.40;;
69126;SDS011;56688;50.234;19.292;2023-06-22T02:43:50;15.40;;;6.40;;
69126;SDS011;56688;50.234;19.292;2023-06-22T02:46:18;14.00;;;6.60;;
69126;SDS011;56688;50.234;19.292;2023-06-22T02:48:45;13.40;;;5.60;;
69126;SDS011;56688;50.234;19.292;2023-06-22T02:51:13;11.30;;;5.40;;
69126;SDS011;56688;50.234;19.292;2023-06-22T02:53:39;14.50;;;5.80;;
69126;SDS011;56688;50.234;19.292;2023-06-22T02:56:07;12.60;;;5.60;;
69126;SDS011;56688;50.234;19.292;2023-06-22T02:58:36;10.00;;;5.40;;
69126;SDS011;56688;50.234;19.292;2023-06-22T03:01:07;11.10;;;5.20;;
69126;SDS011;56688;50.234;19.292;2023-06-22T03:03:35;12.30;;;5.30;;
69126;SDS011;56688;50.234;19.292;2023-06-22T03:06:02;16.90;;;5.70;;
69126;SDS011;56688;50.234;19.292;2023-06-22T03:08:29;10.00;;;5.90;;
69126;SDS011;56688;50.234;19.292;2023-06-22T03:10:56;13.50;;;5.10;;
69126;SDS011;56688;50.234;19.292;2023-06-22T03:13:23;12.90;;;5.60;;
69126;SDS011;56688;50.234;19.292;2023-06-22T03:15:50;14.30;;;5.00;;
69126;SDS011;56688;50.234;19.292;2023-06-22T03:18:17;16.20;;;6.20;;
69126;SDS011;56688;50.234;19.292;2023-06-22T03:20:44;17.20;;;7.60;;
69126;SDS011;56688;50.234;19.292;2023-06-22T03:23:11;12.00;;;6.90;;
69126;SDS011;56688;50.234;19.292;2023-06-22T03:25:38;13.80;;;8.00;;
69126;SDS011;56688;50.234;19.292;2023-06-22T03:28:05;21.00;;;8.80;;
69126;SDS011;56688;50.234;19.292;2023-06-22T03:30:32;17.00;;;8.40;;
69126;SDS011;56688;50.234;19.292;2023-06-22T03:32:59;15.80;;;7.80;;
69126;SDS011;56688;50.234;19.292;2023-06-22T03:35:26;16.30;;;6.80;;
69126;SDS011;56688;50.234;19.292;2023-06-22T03:37:55;14.80;;;6.70;;
69126;SDS011;56688;50.234;19.292;2023-06-22T03:40:22;17.80;;;6.60;;
69126;SDS011;56688;50.234;19.292;2023-06-22T03:42:50;16.20;;;6.60;;
69126;SDS011;56688;50.234;19.292;2023-06-22T03:45:16;13.30;;;6.10;;
69126;SDS011;56688;50.234;19.292;2023-06-22T03:47:43;18.00;;;6.40;;
69126;SDS011;56688;50.234;19.292;2023-06-22T03:50:10;15.90;;;7.00;;
69126;SDS011;56688;50.234;19.292;2023-06-22T03:52:37;11.90;;;6.40;;
69126;SDS011;56688;50.234;19.292;2023-06-22T03:55:04;16.30;;;6.80;;
69126;SDS011;56688;50.234;19.292;2023-06-22T03:57:32;14.70;;;6.80;;
69126;SDS011;56688;50.234;19.292;2023-06-22T03:59:59;20.40;;;6.70;;
69126;SDS011;56688;50.234;19.292;2023-06-22T04:02:26;13.00;;;6.40;;
69126;SDS011;56688;50.234;19.292;2023-06-22T04:04:53;18.70;;;6.50;;
69126;SDS011;56688;50.234;19.292;2023-06-22T04:07:20;13.90;;;6.10;;
69126;SDS011;56688;50.234;19.292;2023-06-22T04:09:47;17.50;;;6.30;;
69126;SDS011;56688;50.234;19.292;2023-06-22T04:12:14;17.90;;;6.30;;
69126;SDS011;56688;50.234;19.292;2023-06-22T04:14:41;17.60;;;6.10;;
69126;SDS011;56688;50.234;19.292;2023-06-22T04:17:08;13.10;;;6.20;;
69126;SDS011;56688;50.234;19.292;2023-06-22T04:19:35;18.20;;;6.40;;
69126;SDS011;56688;50.234;19.292;2023-06-22T04:22:02;13.20;;;5.60;;
69126;SDS011;56688;50.234;19.292;2023-06-22T04:24:29;14.00;;;6.30;;
69126;SDS011;56688;50.234;19.292;2023-06-22T04:26:55;18.40;;;6.40;;
69126;SDS011;56688;50.234;19.292;2023-06-22T04:29:22;14.40;;;6.30;;
69126;SDS011;56688;50.234;19.292;2023-06-22T04:31:56;12.40;;;6.20;;
69126;SDS011;56688;50.234;19.292;2023-06-22T04:34:29;10.50;;;6.00;;
69126;SDS011;56688;50.234;19.292;2023-06-22T04:36:56;14.40;;;6.60;;
69126;SDS011;56688;50.234;19.292;2023-06-22T04:39:23;13.10;;;6.40;;
69126;SDS011;56688;50.234;19.292;2023-06-22T04:41:50;19.50;;;6.70;;
69126;SDS011;56688;50.234;19.292;2023-06-22T04:44:18;13.00;;;6.60;;
69126;SDS011;56688;50.234;19.292;2023-06-22T04:46:55;11.90;;;6.10;;
69126;SDS011;56688;50.234;19.292;2023-06-22T04:49:27;19.60;;;8.10;;
69126;SDS011;56688;50.234;19.292;2023-06-22T04:52:03;11.90;;;7.20;;
69126;SDS011;56688;50.234;19.292;2023-06-22T04:54:32;19.50;;;7.20;;
69126;SDS011;56688;50.234;19.292;2023-06-22T04:57:00;14.70;;;7.40;;
69126;SDS011;56688;50.234;19.292;2023-06-22T04:59:29;19.30;;;7.50;;
69126;SDS011;56688;50.234;19.292;2023-06-22T05:01:57;16.80;;;7.60;;
69126;SDS011;56688;50.234;19.292;2023-06-22T05:04:26;18.20;;;7.80;;
69126;SDS011;56688;50.234;19.292;2023-06-22T05:06:59;16.70;;;8.30;;
69126;SDS011;56688;50.234;19.292;2023-06-22T05:09:27;14.70;;;7.70;;
69126;SDS011;56688;50.234;19.292;2023-06-22T05:11:54;12.40;;;8.30;;
69126;SDS011;56688;50.234;19.292;2023-06-22T05:14:22;20.80;;;8.90;;
69126;SDS011;56688;50.234;19.292;2023-06-22T05:16:49;15.30;;;8.80;;
69126;SDS011;56688;50.234;19.292;2023-06-22T05:19:18;21.20;;;8.80;;
69126;SDS011;56688;50.234;19.292;2023-06-22T05:21:45;16.80;;;9.50;;
69126;SDS011;56688;50.234;19.292;2023-06-22T05:24:12;17.90;;;10.00;;
69126;SDS011;56688;50.234;19.292;2023-06-22T05:26:39;16.20;;;10.80;;
69126;SDS011;56688;50.234;19.292;2023-06-22T05:29:06;17.50;;;9.90;;
69126;SDS011;56688;50.234;19.292;2023-06-22T05:31:33;17.50;;;11.00;;
69126;SDS011;56688;50.234;19.292;2023-06-22T05:34:00;17.60;;;10.40;;
69126;SDS011;56688;50.234;19.292;2023-06-22T05:36:27;20.10;;;10.50;;
69126;SDS011;56688;50.234;19.292;2023-06-22T05:38:56;20.30;;;11.50;;
69126;SDS011;56688;50.234;19.292;2023-06-22T05:41:23;18.70;;;11.50;;
69126;SDS011;56688;50.234;19.292;2023-06-22T05:43:50;22.60;;;12.80;;
69126;SDS011;56688;50.234;19.292;2023-06-22T05:46:18;18.20;;;11.50;;
69126;SDS011;56688;50.234;19.292;2023-06-22T05:48:45;22.00;;;12.20;;
69126;SDS011;56688;50.234;19.292;2023-06-22T05:51:12;22.10;;;14.00;;
69126;SDS011;56688;50.234;19.292;2023-06-22T05:53:39;22.60;;;13.90;;
69126;SDS011;56688;50.234;19.292;2023-06-22T05:56:06;20.70;;;13.10;;
69126;SDS011;56688;50.234;19.292;2023-06-22T05:58:33;21.90;;;12.30;;
69126;SDS011;56688;50.234;19.292;2023-06-22T06:01:00;21.70;;;13.80;;
69126;SDS011;56688;50.234;19.292;2023-06-22T06:03:27;22.00;;;14.10;;
69126;SDS011;56688;50.234;19.292;2023-06-22T06:05:55;21.90;;;13.00;;
69126;SDS011;56688;50.234;19.292;2023-06-22T06:08:22;20.70;;;13.30;;
69126;SDS011;56688;50.234;19.292;2023-06-22T06:10:49;23.10;;;12.80;;
69126;SDS011;56688;50.234;19.292;2023-06-22T06:13:16;19.10;;;12.80;;
69126;SDS011;56688;50.234;19.292;2023-06-22T06:15:43;19.50;;;13.40;;
69126;SDS011;56688;50.234;19.292;2023-06-22T06:18:10;22.80;;;14.40;;
69126;SDS011;56688;50.234;19.292;2023-06-22T06:20:37;24.50;;;16.00;;
69126;SDS011;56688;50.234;19.292;2023-06-22T06:23:19;24.40;;;16.80;;
69126;SDS011;56688;50.234;19.292;2023-06-22T06:25:46;24.90;;;16.70;;
69126;SDS011;56688;50.234;19.292;2023-06-22T06:28:34;22.50;;;16.70;;
69126;SDS011;56688;50.234;19.292;2023-06-22T06:31:01;22.60;;;16.40;;
69126;SDS011;56688;50.234;19.292;2023-06-22T06:33:28;24.20;;;17.00;;
69126;SDS011;56688;50.234;19.292;2023-06-22T06:35:55;19.30;;;15.90;;
69126;SDS011;56688;50.234;19.292;2023-06-22T06:38:22;25.60;;;17.70;;
69126;SDS011;56688;50.234;19.292;2023-06-22T06:40:50;21.70;;;16.50;;
69126;SDS011;56688;50.234;19.292;2023-06-22T06:43:16;22.80;;;15.90;;
69126;SDS011;56688;50.234;19.292;2023-06-22T06:45:43;21.80;;;16.70;;
69126;SDS011;56688;50.234;19.292;2023-06-22T06:48:10;24.30;;;16.60;;
69126;SDS011;56688;50.234;19.292;2023-06-22T06:50:37;22.60;;;16.60;;
69126;SDS011;56688;50.234;19.292;2023-06-22T06:53:04;26.00;;;17.50;;
69126;SDS011;56688;50.234;19.292;2023-06-22T06:55:32;24.20;;;17.10;;
69126;SDS011;56688;50.234;19.292;2023-06-22T06:58:00;21.60;;;16.70;;
69126;SDS011;56688;50.234;19.292;2023-06-22T07:00:29;23.40;;;17.30;;
69126;SDS011;56688;50.234;19.292;2023-06-22T07:02:56;25.00;;;16.50;;
69126;SDS011;56688;50.234;19.292;2023-06-22T07:05:23;21.00;;;17.20;;
69126;SDS011;56688;50.234;19.292;2023-06-22T07:07:50;25.30;;;17.00;;
69126;SDS011;56688;50.234;19.292;2023-06-22T07:10:17;23.40;;;16.50;;
69126;SDS011;56688;50.234;19.292;2023-06-22T07:12:44;20.00;;;15.10;;
69126;SDS011;56688;50.234;19.292;2023-06-22T07:15:11;19.40;;;14.90;;
69126;SDS011;56688;50.234;19.292;2023-06-22T07:17:39;16.00;;;13.60;;
69126;SDS011;56688;50.234;19.292;2023-06-22T07:20:08;18.80;;;14.40;;
69126;SDS011;56688;50.234;19.292;2023-06-22T07:22:38;16.20;;;14.00;;
69126;SDS011;56688;50.234;19.292;2023-06-22T07:25:06;15.70;;;13.80;;
69126;SDS011;56688;50.234;19.292;2023-06-22T07:27:38;15.60;;;13.70;;
69126;SDS011;56688;50.234;19.292;2023-06-22T07:30:09;17.50;;;13.60;;
69126;SDS011;56688;50.234;19.292;2023-06-22T07:32:36;16.30;;;13.20;;
69126;SDS011;56688;50.234;19.292;2023-06-22T07:35:04;15.50;;;12.30;;
69126;SDS011;56688;50.234;19.292;2023-06-22T07:37:31;16.30;;;12.20;;
69126;SDS011;56688;50.234;19.292;2023-06-22T07:39:59;15.90;;;11.60;;
69126;SDS011;56688;50.234;19.292;2023-06-22T07:42:27;12.30;;;11.00;;
69126;SDS011;56688;50.234;19.292;2023-06-22T07:44:55;11.70;;;10.50;;
69126;SDS011;56688;50.234;19.292;2023-06-22T07:47:22;13.70;;;11.30;;
69126;SDS011;56688;50.234;19.292;2023-06-22T07:49:52;12.30;;;10.30;;
69126;SDS011;56688;50.234;19.292;2023-06-22T07:52:21;10.90;;;9.60;;
69126;SDS011;56688;50.234;19.292;2023-06-22T07:54:48;11.10;;;9.90;;
69126;SDS011;56688;50.234;19.292;2023-06-22T07:57:15;9.90;;;8.70;;
69126;SDS011;56688;50.234;19.292;2023-06-22T07:59:42;9.60;;;8.70;;
69126;SDS011;56688;50.234;19.292;2023-06-22T08:02:08;9.40;;;7.90;;
69126;SDS011;56688;50.234;19.292;2023-06-22T08:04:36;9.30;;;7.70;;
69126;SDS011;56688;50.234;19.292;2023-06-22T08:07:04;8.60;;;6.70;;
69126;SDS011;56688;50.234;19.292;2023-06-22T08:09:31;7.10;;;6.40;;
69126;SDS011;56688;50.234;19.292;2023-06-22T08:11:59;7.30;;;6.00;;
69126;SDS011;56688;50.234;19.292;2023-06-22T08:14:26;6.10;;;5.50;;
69126;SDS011;56688;50.234;19.292;2023-06-22T08:16:54;8.20;;;5.90;;
69126;SDS011;56688;50.234;19.292;2023-06-22T08:19:21;8.70;;;5.70;;
69126;SDS011;56688;50.234;19.292;2023-06-22T08:21:47;6.80;;;5.50;;
69126;SDS011;56688;50.234;19.292;2023-06-22T08:24:14;9.20;;;5.80;;
69126;SDS011;56688;50.234;19.292;2023-06-22T08:26:41;7.20;;;5.10;;
69126;SDS011;56688;50.234;19.292;2023-06-22T08:29:08;5.90;;;4.70;;
69126;SDS011;56688;50.234;19.292;2023-06-22T08:31:35;5.40;;;4.70;;
69126;SDS011;56688;50.234;19.292;2023-06-22T08:34:02;5.00;;;4.50;;
69126;SDS011;56688;50.234;19.292;2023-06-22T08:36:29;6.40;;;4.80;;
69126;SDS011;56688;50.234;19.292;2023-06-22T08:38:59;5.70;;;4.30;;
69126;SDS011;56688;50.234;19.292;2023-06-22T08:41:28;5.20;;;4.20;;
69126;SDS011;56688;50.234;19.292;2023-06-22T08:43:55;4.50;;;4.10;;
69126;SDS011;56688;50.234;19.292;2023-06-22T08:46:22;5.60;;;4.30;;
69126;SDS011;56688;50.234;19.292;2023-06-22T08:48:57;5.10;;;4.20;;
69126;SDS011;56688;50.234;19.292;2023-06-22T08:51:24;5.30;;;4.30;;
69126;SDS011;56688;50.234;19.292;2023-06-22T08:53:51;5.70;;;4.90;;
69126;SDS011;56688;50.234;19.292;2023-06-22T08:56:18;5.30;;;4.80;;
69126;SDS011;56688;50.234;19.292;2023-06-22T08:58:45;5.70;;;4.50;;
69126;SDS011;56688;50.234;19.292;2023-06-22T09:01:12;6.60;;;4.60;;
69126;SDS011;56688;50.234;19.292;2023-06-22T09:03:39;5.20;;;4.50;;
69126;SDS011;56688;50.234;19.292;2023-06-22T09:06:06;8.00;;;4.70;;
69126;SDS011;56688;50.234;19.292;2023-06-22T09:08:36;6.80;;;4.90;;
69126;SDS011;56688;50.234;19.292;2023-06-22T09:11:03;5.80;;;4.80;;
69126;SDS011;56688;50.234;19.292;2023-06-22T09:13:30;6.00;;;4.50;;
69126;SDS011;56688;50.234;19.292;2023-06-22T09:15:57;5.80;;;4.50;;
69126;SDS011;56688;50.234;19.292;2023-06-22T09:18:24;7.30;;;4.90;;
69126;SDS011;56688;50.234;19.292;2023-06-22T09:20:51;5.50;;;4.30;;
69126;SDS011;56688;50.234;19.292;2023-06-22T09:23:17;5.80;;;4.80;;
69126;SDS011;56688;50.234;19.292;2023-06-22T09:25:44;5.20;;;4.60;;
69126;SDS011;56688;50.234;19.292;2023-06-22T09:28:14;7.80;;;5.20;;
69126;SDS011;56688;50.234;19.292;2023-06-22T09:30:43;6.00;;;4.30;;
69126;SDS011;56688;50.234;19.292;2023-06-22T09:33:11;6.10;;;4.50;;
69126;SDS011;56688;50.234;19.292;2023-06-22T09:35:38;5.80;;;4.10;;
69126;SDS011;56688;50.234;19.292;2023-06-22T09:38:05;5.50;;;4.80;;
69126;SDS011;56688;50.234;19.292;2023-06-22T09:40:32;5.70;;;4.70;;
69126;SDS011;56688;50.234;19.292;2023-06-22T09:43:02;6.60;;;4.30;;
69126;SDS011;56688;50.234;19.292;2023-06-22T09:45:28;4.80;;;4.30;;
69126;SDS011;56688;50.234;19.292;2023-06-22T09:47:55;5.60;;;4.20;;
69126;SDS011;56688;50.234;19.292;2023-06-22T09:50:23;8.00;;;4.10;;
69126;SDS011;56688;50.234;19.292;2023-06-22T09:52:50;6.20;;;4.50;;
69126;SDS011;56688;50.234;19.292;2023-06-22T09:55:21;4.70;;;4.10;;
69126;SDS011;56688;50.234;19.292;2023-06-22T09:57:49;5.00;;;4.10;;
69126;SDS011;56688;50.234;19.292;2023-06-22T10:00:16;4.50;;;4.20;;
69126;SDS011;56688;50.234;19.292;2023-06-22T10:02:45;5.30;;;4.30;;
69126;SDS011;56688;50.234;19.292;2023-06-22T10:05:13;4.90;;;4.40;;
69126;SDS011;56688;50.234;19.292;2023-06-22T10:07:40;4.70;;;4.20;;
69126;SDS011;56688;50.234;19.292;2023-06-22T10:10:11;7.30;;;4.70;;
69126;SDS011;56688;50.234;19.292;2023-06-22T10:12:41;5.40;;;4.80;;
69126;SDS011;56688;50.234;19.292;2023-06-22T10:15:10;6.60;;;4.70;;
69126;SDS011;56688;50.234;19.292;2023-06-22T10:17:37;7.40;;;4.60;;
69126;SDS011;56688;50.234;19.292;2023-06-22T10:20:06;7.70;;;4.80;;
69126;SDS011;56688;50.234;19.292;2023-06-22T10:22:41;6.50;;;4.40;;
69126;SDS011;56688;50.234;19.292;2023-06-22T10:25:09;5.70;;;4.50;;
69126;SDS011;56688;50.234;19.292;2023-06-22T10:27:38;7.20;;;4.70;;
69126;SDS011;56688;50.234;19.292;2023-06-22T10:30:07;8.80;;;4.80;;
69126;SDS011;56688;50.234;19.292;2023-06-22T10:32:35;5.20;;;4.70;;
69126;SDS011;56688;50.234;19.292;2023-06-22T10:35:04;5.30;;;4.70;;
69126;SDS011;56688;50.234;19.292;2023-06-22T10:37:31;8.20;;;5.10;;
69126;SDS011;56688;50.234;19.292;2023-06-22T10:39:59;6.40;;;5.10;;
69126;SDS011;56688;50.234;19.292;2023-06-22T10:42:26;6.50;;;4.80;;
69126;SDS011;56688;50.234;19.292;2023-06-22T10:44:52;5.60;;;4.50;;
69126;SDS011;56688;50.234;19.292;2023-06-22T10:47:19;4.80;;;4.40;;
69126;SDS011;56688;50.234;19.292;2023-06-22T10:49:46;5.00;;;4.20;;
69126;SDS011;56688;50.234;19.292;2023-06-22T10:52:13;5.60;;;4.70;;
69126;SDS011;56688;50.234;19.292;2023-06-22T10:54:40;5.70;;;4.50;;
69126;SDS011;56688;50.234;19.292;2023-06-22T10:57:07;5.30;;;4.80;;
69126;SDS011;56688;50.234;19.292;2023-06-22T10:59:34;6.30;;;4.80;;
69126;SDS011;56688;50.234;19.292;2023-06-22T11:02:01;5.90;;;5.10;;
69126;SDS011;56688;50.234;19.292;2023-06-22T11:04:29;6.70;;;5.00;;
69126;SDS011;56688;50.234;19.292;2023-06-22T11:06:56;7.80;;;5.10;;
69126;SDS011;56688;50.234;19.292;2023-06-22T11:09:22;7.40;;;5.30;;
69126;SDS011;56688;50.234;19.292;2023-06-22T11:11:55;8.50;;;5.10;;
69126;SDS011;56688;50.234;19.292;2023-06-22T11:14:22;6.50;;;5.20;;
69126;SDS011;56688;50.234;19.292;2023-06-22T11:16:49;9.10;;;5.70;;
69126;SDS011;56688;50.234;19.292;2023-06-22T11:19:17;9.90;;;5.00;;
69126;SDS011;56688;50.234;19.292;2023-06-22T11:21:45;6.90;;;5.10;;
69126;SDS011;56688;50.234;19.292;2023-06-22T11:24:12;5.90;;;4.80;;
69126;SDS011;56688;50.234;19.292;2023-06-22T11:26:38;6.90;;;4.80;;
69126;SDS011;56688;50.234;19.292;2023-06-22T11:29:05;6.90;;;4.50;;
69126;SDS011;56688;50.234;19.292;2023-06-22T11:31:34;4.90;;;4.50;;
69126;SDS011;56688;50.234;19.292;2023-06-22T11:34:01;5.30;;;4.50;;
69126;SDS011;56688;50.234;19.292;2023-06-22T11:36:29;5.30;;;4.50;;
69126;SDS011;56688;50.234;19.292;2023-06-22T11:38:59;5.20;;;4.70;;
69126;SDS011;56688;50.234;19.292;2023-06-22T11:41:26;7.60;;;5.00;;
69126;SDS011;56688;50.234;19.292;2023-06-22T11:43:53;8.80;;;6.40;;
69126;SDS011;56688;50.234;19.292;2023-06-22T11:46:20;8.00;;;5.40;;
69126;SDS011;56688;50.234;19.292;2023-06-22T11:48:47;8.90;;;5.10;;
69126;SDS011;56688;50.234;19.292;2023-06-22T11:51:14;5.20;;;4.70;;
69126;SDS011;56688;50.234;19.292;2023-06-22T11:53:41;6.20;;;4.90;;
69126;SDS011;56688;50.234;19.292;2023-06-22T11:56:08;7.80;;;5.20;;
69126;SDS011;56688;50.234;19.292;2023-06-22T11:58:36;5.30;;;4.70;;
69126;SDS011;56688;50.234;19.292;2023-06-22T12:01:03;5.00;;;4.30;;
69126;SDS011;56688;50.234;19.292;2023-06-22T12:03:30;6.90;;;4.30;;
69126;SDS011;56688;50.234;19.292;2023-06-22T12:05:57;4.60;;;3.80;;
69126;SDS011;56688;50.234;19.292;2023-06-22T12:08:24;5.00;;;4.00;;
69126;SDS011;56688;50.234;19.292;2023-06-22T12:10:51;5.90;;;4.30;;
69126;SDS011;56688;50.234;19.292;2023-06-22T12:13:18;4.30;;;3.70;;
69126;SDS011;56688;50.234;19.292;2023-06-22T12:15:45;5.40;;;4.40;;
69126;SDS011;56688;50.234;19.292;2023-06-22T12:18:12;8.10;;;4.40;;
69126;SDS011;56688;50.234;19.292;2023-06-22T12:20:41;5.80;;;4.60;;
69126;SDS011;56688;50.234;19.292;2023-06-22T12:23:08;4.90;;;4.50;;
69126;SDS011;56688;50.234;19.292;2023-06-22T12:25:35;7.00;;;4.30;;
69126;SDS011;56688;50.234;19.292;2023-06-22T12:28:02;4.80;;;4.20;;
69126;SDS011;56688;50.234;19.292;2023-06-22T12:30:32;5.40;;;4.30;;
69126;SDS011;56688;50.234;19.292;2023-06-22T12:32:59;5.40;;;4.30;;
69126;SDS011;56688;50.234;19.292;2023-06-22T12:35:26;4.60;;;4.10;;
69126;SDS011;56688;50.234;19.292;2023-06-22T12:37:53;6.00;;;4.40;;
69126;SDS011;56688;50.234;19.292;2023-06-22T12:40:20;7.90;;;4.30;;
69126;SDS011;56688;50.234;19.292;2023-06-22T12:42:47;6.10;;;4.40;;
69126;SDS011;56688;50.234;19.292;2023-06-22T12:45:14;6.20;;;4.40;;
69126;SDS011;56688;50.234;19.292;2023-06-22T12:47:40;5.30;;;4.10;;
69126;SDS011;56688;50.234;19.292;2023-06-22T12:50:07;5.50;;;4.40;;
69126;SDS011;56688;50.234;19.292;2023-06-22T12:52:36;4.70;;;4.30;;
69126;SDS011;56688;50.234;19.292;2023-06-22T12:55:06;5.70;;;4.30;;
69126;SDS011;56688;50.234;19.292;2023-06-22T12:57:33;5.00;;;4.30;;
69126;SDS011;56688;50.234;19.292;2023-06-22T13:00:00;4.90;;;4.50;;
69126;SDS011;56688;50.234;19.292;2023-06-22T13:02:27;5.10;;;4.40;;
69126;SDS011;56688;50.234;19.292;2023-06-22T13:04:55;5.90;;;4.30;;
69126;SDS011;56688;50.234;19.292;2023-06-22T13:07:22;6.90;;;4.40;;
69126;SDS011;56688;50.234;19.292;2023-06-22T13:09:50;4.50;;;4.10;;
69126;SDS011;56688;50.234;19.292;2023-06-22T13:12:19;5.10;;;4.40;;
69126;SDS011;56688;50.234;19.292;2023-06-22T13:14:47;6.70;;;5.10;;
69126;SDS011;56688;50.234;19.292;2023-06-22T13:17:14;5.50;;;4.60;;
69126;SDS011;56688;50.234;19.292;2023-06-22T13:19:41;4.90;;;4.40;;
69126;SDS011;56688;50.234;19.292;2023-06-22T13:22:25;4.80;;;4.30;;
69126;SDS011;56688;50.234;19.292;2023-06-22T13:24:55;4.70;;;4.20;;
69126;SDS011;56688;50.234;19.292;2023-06-22T13:27:22;4.80;;;4.10;;
69126;SDS011;56688;50.234;19.292;2023-06-22T13:29:49;6.60;;;4.60;;
69126;SDS011;56688;50.234;19.292;2023-06-22T13:32:16;5.60;;;4.60;;
69126;SDS011;56688;50.234;19.292;2023-06-22T13:34:43;4.90;;;4.40;;
69126;SDS011;56688;50.234;19.292;2023-06-22T13:37:10;6.30;;;4.70;;
69126;SDS011;56688;50.234;19.292;2023-06-22T13:39:37;5.00;;;4.50;;
69126;SDS011;56688;50.234;19.292;2023-06-22T13:42:04;5.80;;;4.30;;
69126;SDS011;56688;50.234;19.292;2023-06-22T13:44:31;5.20;;;4.50;;
69126;SDS011;56688;50.234;19.292;2023-06-22T13:46:58;5.70;;;4.70;;
69126;SDS011;56688;50.234;19.292;2023-06-22T13:49:25;4.80;;;4.40;;
69126;SDS011;56688;50.234;19.292;2023-06-22T13:51:52;6.30;;;4.70;;
69126;SDS011;56688;50.234;19.292;2023-06-22T13:54:19;6.50;;;4.50;;
69126;SDS011;56688;50.234;19.292;2023-06-22T13:56:49;5.60;;;4.70;;
69126;SDS011;56688;50.234;19.292;2023-06-22T13:59:15;5.00;;;4.50;;
69126;SDS011;56688;50.234;19.292;2023-06-22T14:01:42;6.70;;;4.50;;
69126;SDS011;56688;50.234;19.292;2023-06-22T14:04:10;7.80;;;4.70;;
69126;SDS011;56688;50.234;19.292;2023-06-22T14:06:37;5.10;;;4.60;;
69126;SDS011;56688;50.234;19.292;2023-06-22T14:09:04;8.30;;;4.90;;
69126;SDS011;56688;50.234;19.292;2023-06-22T14:11:31;9.50;;;4.60;;
69126;SDS011;56688;50.234;19.292;2023-06-22T14:13:58;8.70;;;6.30;;
69126;SDS011;56688;50.234;19.292;2023-06-22T14:16:25;5.10;;;4.60;;
69126;SDS011;56688;50.234;19.292;2023-06-22T14:18:52;8.30;;;4.80;;
69126;SDS011;56688;50.234;19.292;2023-06-22T14:21:38;6.40;;;5.20;;
69126;SDS011;56688;50.234;19.292;2023-06-22T14:24:05;5.60;;;5.00;;
69126;SDS011;56688;50.234;19.292;2023-06-22T14:26:32;6.20;;;4.90;;
69126;SDS011;56688;50.234;19.292;2023-06-22T14:28:59;8.00;;;5.40;;
69126;SDS011;56688;50.234;19.292;2023-06-22T14:31:25;7.00;;;5.20;;
69126;SDS011;56688;50.234;19.292;2023-06-22T14:33:52;7.90;;;4.90;;
69126;SDS011;56688;50.234;19.292;2023-06-22T14:36:19;6.40;;;5.10;;